createdAt,value
2023-03-28T00:02:13.057Z,5.60
2023-03-28T00:04:41.460Z,5.60
2023-03-28T00:07:08.483Z,5.60
2023-03-28T00:09:35.489Z,5.60
2023-03-28T00:12:02.424Z,5.60
2023-03-28T00:14:29.935Z,5.50
2023-03-28T00:16:57.429Z,5.50
2023-03-28T00:19:24.422Z,5.50
2023-03-28T00:21:51.604Z,5.50
2023-03-28T00:24:21.634Z,5.40
2023-03-28T00:26:54.832Z,5.40
2023-03-28T00:29:22.225Z,5.40
2023-03-28T00:31:49.993Z,5.30
2023-03-28T00:34:17.254Z,5.30
2023-03-28T00:36:44.477Z,5.30
2023-03-28T00:39:11.658Z,5.30
2023-03-28T00:41:40.361Z,5.30
2023-03-28T00:44:38.450Z,5.30
2023-03-28T00:47:06.538Z,5.30
2023-03-28T00:49:33.560Z,5.30
2023-03-28T00:52:01.812Z,5.30
2023-03-28T00:54:29.940Z,5.30
2023-03-28T00:56:58.318Z,5.30
2023-03-28T00:59:27.206Z,5.30
2023-03-28T01:01:55.459Z,5.30
2023-03-28T01:04:24.772Z,5.30
2023-03-28T01:06:54.951Z,5.30
2023-03-28T01:09:24.257Z,5.30
2023-03-28T01:11:52.980Z,5.30
2023-03-28T01:14:21.560Z,5.30
2023-03-28T01:16:51.427Z,5.40
2023-03-28T01:19:38.722Z,5.40
2023-03-28T01:22:17.714Z,5.40
2023-03-28T01:25:03.366Z,5.50
2023-03-28T01:27:39.369Z,5.50
2023-03-28T01:30:34.259Z,5.60
2023-03-28T01:33:52.876Z,5.60
2023-03-28T01:36:34.100Z,5.60
2023-03-28T01:39:39.683Z,5.60
2023-03-28T01:42:43.238Z,5.60
2023-03-28T01:45:35.111Z,5.60
2023-03-28T01:48:06.897Z,5.70
2023-03-28T01:50:48.596Z,5.60
2023-03-28T01:53:30.585Z,5.60
2023-03-28T01:56:03.459Z,5.60
2023-03-28T01:58:30.653Z,5.60
2023-03-28T02:01:13.927Z,5.60
2023-03-28T02:03:44.639Z,5.60
2023-03-28T02:06:34.863Z,5.60
2023-03-28T02:09:04.401Z,5.60
2023-03-28T02:12:26.589Z,5.60
2023-03-28T02:15:07.009Z,5.60
2023-03-28T02:18:18.194Z,5.60
2023-03-28T02:20:57.368Z,5.60
2023-03-28T02:23:51.985Z,5.60
2023-03-28T02:26:33.657Z,5.70
2023-03-28T02:29:21.515Z,5.70
2023-03-28T02:31:58.148Z,5.70
2023-03-28T02:34:25.476Z,5.70
2023-03-28T02:36:57.446Z,5.70
2023-03-28T02:39:42.996Z,5.70
2023-03-28T02:42:40.094Z,5.70
2023-03-28T02:45:22.870Z,5.60
2023-03-28T02:48:05.806Z,5.60
2023-03-28T02:50:49.001Z,5.60
2023-03-28T02:53:27.297Z,5.50
2023-03-28T02:56:15.008Z,5.50
2023-03-28T02:59:07.423Z,5.50
2023-03-28T03:01:36.879Z,5.40
2023-03-28T03:04:04.369Z,5.40
2023-03-28T03:06:35.295Z,5.40
2023-03-28T03:09:04.973Z,5.40
2023-03-28T03:11:32.393Z,5.50
2023-03-28T03:14:00.563Z,5.50
2023-03-28T03:16:29.616Z,5.50
2023-03-28T03:18:58.283Z,5.50
2023-03-28T03:21:25.845Z,5.50
2023-03-28T03:23:52.869Z,5.50
2023-03-28T03:26:19.927Z,5.60
2023-03-28T03:29:01.753Z,5.60
2023-03-28T03:31:32.322Z,5.60
2023-03-28T03:33:59.343Z,5.60
2023-03-28T03:36:31.988Z,5.70
2023-03-28T03:39:00.654Z,5.70
2023-03-28T03:41:27.944Z,5.70
2023-03-28T03:43:54.985Z,5.70
2023-03-28T03:46:22.633Z,5.70
2023-03-28T03:48:51.259Z,5.70
2023-03-28T03:51:18.654Z,5.70
2023-03-28T03:53:50.858Z,5.70
2023-03-28T03:56:21.361Z,5.80
2023-03-28T03:58:58.784Z,5.80
2023-03-28T04:01:34.144Z,5.70
2023-03-28T04:04:24.412Z,5.80
2023-03-28T04:07:14.235Z,5.80
2023-03-28T04:09:41.663Z,5.80
2023-03-28T04:12:10.645Z,5.90
2023-03-28T04:14:46.657Z,5.90
2023-03-28T04:17:35.230Z,5.90
2023-03-28T04:20:12.023Z,6.00
2023-03-28T04:22:56.334Z,6.00
2023-03-28T04:25:25.049Z,6.00
2023-03-28T04:27:54.796Z,6.10
2023-03-28T04:30:25.990Z,6.10
2023-03-28T04:33:11.438Z,6.10
2023-03-28T04:35:41.268Z,6.10
2023-03-28T04:38:09.942Z,6.20
2023-03-28T04:40:50.081Z,6.20
2023-03-28T04:43:36.696Z,6.20
2023-03-28T04:46:03.982Z,6.20
2023-03-28T04:48:31.748Z,6.20
2023-03-28T04:50:58.800Z,6.30
2023-03-28T04:53:25.796Z,6.30
2023-03-28T04:56:14.050Z,6.30
2023-03-28T04:58:41.934Z,6.30
2023-03-28T05:01:10.671Z,6.40
2023-03-28T05:04:12.979Z,6.40
2023-03-28T05:06:46.131Z,6.50
2023-03-28T05:09:14.511Z,6.50
2023-03-28T05:11:41.485Z,6.50
2023-03-28T05:14:08.938Z,6.50
2023-03-28T05:16:42.743Z,6.50
2023-03-28T05:19:28.669Z,6.50
2023-03-28T05:22:09.178Z,6.60
2023-03-28T05:24:40.766Z,6.60
2023-03-28T05:27:14.834Z,6.60
2023-03-28T05:29:41.799Z,6.60
2023-03-28T05:32:09.361Z,6.70
2023-03-28T05:34:36.372Z,6.70
2023-03-28T05:37:04.493Z,6.70
2023-03-28T05:39:43.362Z,6.70
2023-03-28T05:42:10.541Z,6.70
2023-03-28T05:44:39.987Z,6.70
2023-03-28T05:47:22.401Z,6.70
2023-03-28T05:49:49.429Z,6.70
2023-03-28T05:52:16.747Z,6.70
2023-03-28T05:54:50.541Z,6.60
2023-03-28T05:57:21.705Z,6.60
2023-03-28T05:59:49.723Z,6.60
2023-03-28T06:02:21.061Z,6.50
2023-03-28T06:04:49.046Z,6.50
2023-03-28T06:07:17.099Z,6.50
2023-03-28T06:09:46.789Z,6.50
2023-03-28T06:12:14.601Z,6.40
2023-03-28T06:14:48.543Z,6.40
2023-03-28T06:17:28.743Z,6.40
2023-03-28T06:19:57.773Z,6.40
2023-03-28T06:22:25.095Z,6.40
2023-03-28T06:24:57.413Z,6.30
2023-03-28T06:27:27.158Z,6.30
2023-03-28T06:29:54.865Z,6.30
2023-03-28T06:32:22.435Z,6.30
2023-03-28T06:34:49.455Z,6.40
2023-03-28T06:37:16.522Z,6.40
2023-03-28T06:40:06.091Z,6.40
2023-03-28T06:42:33.099Z,6.40
2023-03-28T06:45:19.646Z,6.40
2023-03-28T06:47:52.218Z,6.50
2023-03-28T06:50:25.564Z,6.50
2023-03-28T06:53:04.533Z,6.60
2023-03-28T06:55:32.102Z,6.60
2023-03-28T06:57:59.120Z,6.70
2023-03-28T07:00:32.895Z,6.60
2023-03-28T07:03:18.480Z,6.70
2023-03-28T07:05:46.014Z,6.70
2023-03-28T07:08:13.343Z,6.70
2023-03-28T07:10:40.709Z,6.70
2023-03-28T07:13:07.873Z,6.80
2023-03-28T07:15:37.837Z,6.90
2023-03-28T07:18:06.048Z,6.90
2023-03-28T07:20:33.396Z,7.00
2023-03-28T07:23:00.723Z,7.00
2023-03-28T07:25:29.617Z,7.00
2023-03-28T07:27:56.662Z,7.00
2023-03-28T07:30:23.726Z,7.10
2023-03-28T07:32:59.227Z,7.10
2023-03-28T07:35:30.950Z,7.20
2023-03-28T07:37:58.554Z,7.30
2023-03-28T07:40:45.565Z,7.30
2023-03-28T07:43:12.665Z,7.40
2023-03-28T07:45:39.693Z,7.40
2023-03-28T07:48:07.128Z,7.50
2023-03-28T07:50:35.128Z,7.50
2023-03-28T07:53:02.115Z,7.50
2023-03-28T07:55:48.350Z,7.60
2023-03-28T07:58:23.922Z,7.70
2023-03-28T08:00:51.689Z,7.70
2023-03-28T08:03:37.594Z,7.80
2023-03-28T08:06:11.300Z,7.80
2023-03-28T08:08:47.618Z,7.90
2023-03-28T08:11:30.884Z,7.90
2023-03-28T08:13:57.886Z,7.90
2023-03-28T08:16:24.901Z,8.00
2023-03-28T08:19:09.281Z,8.00
2023-03-28T08:21:44.879Z,8.10
2023-03-28T08:24:17.382Z,8.10
2023-03-28T08:26:57.502Z,8.10
2023-03-28T08:29:24.718Z,8.20
2023-03-28T08:31:51.795Z,8.30
2023-03-28T08:34:18.996Z,8.40
2023-03-28T08:36:47.270Z,8.40
2023-03-28T08:39:24.535Z,8.40
2023-03-28T08:42:09.830Z,8.50
2023-03-28T08:44:49.618Z,8.50
2023-03-28T08:47:21.607Z,8.60
2023-03-28T08:49:53.301Z,8.60
2023-03-28T08:52:21.335Z,8.60
2023-03-28T08:55:07.262Z,8.70
2023-03-28T08:57:34.977Z,8.70
2023-03-28T09:00:21.138Z,8.70
2023-03-28T09:02:51.222Z,8.90
2023-03-28T09:06:00.920Z,9.00
2023-03-28T09:09:16.512Z,9.10
2023-03-28T09:12:23.107Z,9.10
2023-03-28T09:15:16.599Z,9.10
2023-03-28T09:17:50.256Z,9.10
2023-03-28T09:20:28.585Z,9.10
2023-03-28T09:23:47.682Z,9.10
2023-03-28T09:26:54.818Z,9.00
2023-03-28T09:29:25.328Z,8.80
2023-03-28T09:32:00.194Z,8.80
2023-03-28T09:34:38.354Z,8.90
2023-03-28T09:37:38.434Z,8.90
2023-03-28T09:40:14.899Z,9.00
2023-03-28T09:43:49.433Z,9.00
2023-03-28T09:46:41.932Z,9.10
2023-03-28T09:49:33.316Z,9.10
2023-03-28T09:52:21.446Z,9.20
2023-03-28T09:54:48.602Z,9.20
2023-03-28T09:57:16.009Z,9.20
2023-03-28T10:00:07.654Z,9.20
2023-03-28T10:02:52.501Z,9.20
2023-03-28T10:05:35.126Z,9.10
2023-03-28T10:08:37.082Z,9.20
2023-03-28T10:11:22.863Z,9.10
2023-03-28T10:13:50.930Z,9.10
2023-03-28T10:16:31.852Z,9.00
2023-03-28T10:19:03.546Z,9.00
2023-03-28T10:21:31.163Z,8.90
2023-03-28T10:24:22.076Z,8.90
2023-03-28T10:27:12.741Z,8.90
2023-03-28T10:29:39.787Z,8.80
2023-03-28T10:32:06.954Z,8.80
2023-03-28T10:34:41.143Z,8.70
2023-03-28T10:37:30.691Z,8.70
2023-03-28T10:40:19.257Z,8.70
2023-03-28T10:42:58.656Z,8.60
2023-03-28T10:46:02.703Z,8.60
2023-03-28T10:49:02.231Z,8.50
2023-03-28T10:51:31.620Z,8.60
2023-03-28T10:54:16.546Z,8.50
2023-03-28T10:56:53.560Z,8.60
2023-03-28T11:00:01.498Z,8.70
2023-03-28T11:02:36.322Z,8.80
2023-03-28T11:05:34.910Z,8.90
2023-03-28T11:08:36.983Z,8.90
2023-03-28T11:11:31.648Z,8.80
2023-03-28T11:14:18.356Z,8.90
2023-03-28T11:16:57.886Z,8.80
2023-03-28T11:20:25.527Z,8.80
2023-03-28T11:23:06.166Z,9.00
2023-03-28T11:26:16.925Z,9.10
2023-03-28T11:29:19.165Z,9.10
2023-03-28T11:32:05.353Z,9.20
2023-03-28T11:34:35.553Z,9.10
2023-03-28T11:37:27.578Z,9.10
2023-03-28T11:40:07.938Z,9.10
2023-03-28T11:42:58.038Z,9.10
2023-03-28T11:45:46.796Z,9.00
2023-03-28T11:48:26.673Z,8.90
2023-03-28T11:51:15.306Z,8.70
2023-03-28T11:53:55.042Z,8.70
2023-03-28T11:56:41.412Z,8.60
2023-03-28T11:59:18.493Z,8.50
2023-03-28T12:01:47.937Z,8.40
2023-03-28T12:04:19.410Z,8.40
2023-03-28T12:07:22.260Z,8.40
2023-03-28T12:10:03.626Z,8.40
2023-03-28T12:12:43.114Z,8.40
2023-03-28T12:15:17.326Z,8.30
2023-03-28T12:18:03.893Z,8.30
2023-03-28T12:20:35.464Z,8.30
2023-03-28T12:23:22.528Z,8.30
2023-03-28T12:26:54.795Z,8.40
2023-03-28T12:29:47.363Z,8.60
2023-03-28T12:32:27.098Z,8.70
2023-03-28T12:35:12.439Z,8.60
2023-03-28T12:38:49.481Z,8.80
2023-03-28T12:41:31.941Z,8.90
2023-03-28T12:44:08.401Z,9.00
2023-03-28T12:46:49.754Z,9.00
2023-03-28T12:49:47.443Z,9.00
2023-03-28T12:52:36.908Z,9.00
2023-03-28T12:55:08.571Z,9.10
2023-03-28T12:57:41.072Z,9.10
2023-03-28T13:00:21.832Z,9.00
2023-03-28T13:03:36.264Z,9.00
2023-03-28T13:06:27.388Z,8.90
2023-03-28T13:09:18.808Z,9.00
2023-03-28T13:12:14.955Z,9.00
2023-03-28T13:14:42.345Z,9.00
2023-03-28T13:17:29.251Z,9.10
2023-03-28T13:20:07.457Z,9.00
2023-03-28T13:22:51.592Z,8.90
2023-03-28T13:25:22.232Z,8.90
2023-03-28T13:27:50.027Z,8.90
2023-03-28T13:30:17.968Z,9.00
2023-03-28T13:32:46.838Z,9.00
2023-03-28T13:35:42.881Z,9.10
2023-03-28T13:38:24.462Z,9.00
2023-03-28T13:40:56.467Z,9.10
2023-03-28T13:43:35.892Z,9.10
2023-03-28T13:46:16.774Z,9.00
2023-03-28T13:48:50.019Z,9.10
2023-03-28T13:51:29.239Z,9.10
2023-03-28T13:53:56.281Z,9.20
2023-03-28T13:56:35.973Z,9.20
2023-03-28T13:59:05.708Z,9.10
2023-03-28T14:01:38.315Z,9.20
2023-03-28T14:04:11.390Z,9.30
2023-03-28T14:06:41.226Z,9.40
2023-03-28T14:09:21.088Z,9.50
2023-03-28T14:11:48.744Z,9.80
2023-03-28T14:14:23.750Z,10.00
2023-03-28T14:16:51.522Z,10.20
2023-03-28T14:19:21.776Z,10.20
2023-03-28T14:21:48.929Z,10.30
2023-03-28T14:24:24.320Z,10.30
2023-03-28T14:26:51.707Z,10.30
2023-03-28T14:29:19.557Z,10.30
2023-03-28T14:31:47.887Z,10.30
2023-03-28T14:34:21.455Z,10.20
2023-03-28T14:36:59.058Z,10.20
2023-03-28T14:39:27.723Z,10.40
2023-03-28T14:41:55.248Z,10.50
2023-03-28T14:44:22.277Z,10.70
2023-03-28T14:46:49.899Z,10.60
2023-03-28T14:49:19.824Z,10.60
2023-03-28T14:51:48.790Z,10.50
2023-03-28T14:54:16.902Z,10.40
2023-03-28T14:56:45.391Z,10.30
2023-03-28T14:59:16.347Z,10.30
2023-03-28T15:01:43.800Z,10.30
2023-03-28T15:04:11.202Z,10.30
2023-03-28T15:06:39.556Z,10.30
2023-03-28T15:09:25.665Z,10.20
2023-03-28T15:11:52.828Z,10.20
2023-03-28T15:14:22.906Z,10.30
2023-03-28T15:16:49.931Z,10.20
2023-03-28T15:19:28.589Z,10.20
2023-03-28T15:21:57.953Z,10.20
2023-03-28T15:24:25.762Z,10.10
2023-03-28T15:26:55.536Z,10.10
2023-03-28T15:29:22.655Z,10.10
2023-03-28T15:31:49.653Z,10.20
2023-03-28T15:34:29.229Z,10.20
2023-03-28T15:37:01.146Z,10.30
2023-03-28T15:39:29.907Z,10.30
2023-03-28T15:42:19.345Z,10.30
2023-03-28T15:44:58.955Z,10.40
2023-03-28T15:47:32.072Z,10.40
2023-03-28T15:50:03.528Z,10.30
2023-03-28T15:52:31.149Z,10.20
2023-03-28T15:54:58.785Z,10.30
2023-03-28T15:57:27.673Z,10.30
2023-03-28T15:59:56.407Z,10.30
2023-03-28T16:02:23.391Z,10.30
2023-03-28T16:05:06.985Z,10.20
2023-03-28T16:07:43.980Z,10.10
2023-03-28T16:10:11.654Z,10.00
2023-03-28T16:12:58.579Z,10.00
2023-03-28T16:15:38.947Z,9.90
2023-03-28T16:18:26.440Z,9.80
2023-03-28T16:20:57.831Z,9.60
2023-03-28T16:23:25.192Z,9.60
2023-03-28T16:25:52.155Z,9.70
2023-03-28T16:28:19.370Z,9.60
2023-03-28T16:30:46.387Z,9.50
2023-03-28T16:33:13.728Z,9.50
2023-03-28T16:35:40.879Z,9.50
2023-03-28T16:38:07.937Z,9.50
2023-03-28T16:40:34.873Z,9.50
2023-03-28T16:43:02.051Z,9.50
2023-03-28T16:45:30.014Z,9.50
2023-03-28T16:47:57.229Z,9.40
2023-03-28T16:50:24.241Z,9.40
2023-03-28T16:52:51.323Z,9.30
2023-03-28T16:55:18.627Z,9.40
2023-03-28T16:57:45.943Z,9.30
2023-03-28T17:00:18.222Z,9.30
2023-03-28T17:02:47.179Z,9.20
2023-03-28T17:05:15.234Z,9.20
2023-03-28T17:07:42.398Z,9.20
2023-03-28T17:10:10.088Z,9.20
2023-03-28T17:12:37.116Z,9.20
2023-03-28T17:15:04.467Z,9.20
2023-03-28T17:17:31.483Z,9.20
2023-03-28T17:19:58.552Z,9.10
2023-03-28T17:22:25.745Z,9.10
2023-03-28T17:24:54.331Z,9.20
2023-03-28T17:27:22.755Z,9.20
2023-03-28T17:29:51.488Z,9.10
2023-03-28T17:32:18.520Z,9.10
2023-03-28T17:34:46.011Z,9.10
2023-03-28T17:37:13.004Z,9.10
2023-03-28T17:39:40.203Z,9.00
2023-03-28T17:42:07.322Z,9.00
2023-03-28T17:44:34.377Z,9.00
2023-03-28T17:47:01.466Z,8.90
2023-03-28T17:49:28.558Z,8.90
2023-03-28T17:51:57.340Z,8.90
2023-03-28T17:54:25.418Z,8.90
2023-03-28T17:56:53.086Z,8.90
2023-03-28T17:59:20.154Z,8.80
2023-03-28T18:01:47.215Z,8.80
2023-03-28T18:04:14.202Z,8.80
2023-03-28T18:06:59.835Z,8.80
2023-03-28T18:09:27.686Z,8.80
2023-03-28T18:11:54.702Z,8.70
2023-03-28T18:14:21.749Z,8.70
2023-03-28T18:16:48.973Z,8.70
2023-03-28T18:19:18.706Z,8.60
2023-03-28T18:21:46.056Z,8.60
2023-03-28T18:24:13.067Z,8.60
2023-03-28T18:26:40.070Z,8.60
2023-03-28T18:29:07.118Z,8.60
2023-03-28T18:31:34.293Z,8.50
2023-03-28T18:34:05.111Z,8.50
2023-03-28T18:36:32.386Z,8.50
2023-03-28T18:38:59.420Z,8.50
2023-03-28T18:41:27.604Z,8.50
2023-03-28T18:43:54.669Z,8.50
2023-03-28T18:46:21.752Z,8.50
2023-03-28T18:48:48.736Z,8.50
2023-03-28T18:51:16.146Z,8.60
2023-03-28T18:53:43.313Z,8.50
2023-03-28T18:56:10.638Z,8.50
2023-03-28T18:58:38.572Z,8.60
2023-03-28T19:04:02.165Z,8.60
2023-03-28T19:06:29.245Z,8.60
2023-03-28T19:08:56.236Z,8.60
2023-03-28T19:11:23.398Z,8.60
2023-03-28T19:13:50.602Z,8.60
2023-03-28T19:16:19.491Z,8.50
2023-03-28T19:18:47.096Z,8.60
2023-03-28T19:21:14.061Z,8.50
2023-03-28T19:23:41.405Z,8.60
2023-03-28T19:26:08.944Z,8.60
2023-03-28T19:28:35.962Z,8.60
2023-03-28T19:31:04.657Z,8.60
2023-03-28T19:33:31.660Z,8.50
2023-03-28T19:35:59.157Z,8.60
2023-03-28T19:38:26.468Z,8.60
2023-03-28T19:41:00.121Z,8.60
2023-03-28T19:43:27.654Z,8.60
2023-03-28T19:46:00.710Z,8.60
2023-03-28T19:48:28.253Z,8.60
2023-03-28T19:50:55.334Z,8.60
2023-03-28T19:53:22.364Z,8.60
2023-03-28T19:55:56.727Z,8.60
2023-03-28T19:58:23.722Z,8.60
2023-03-28T20:00:50.662Z,8.60
2023-03-28T20:03:17.778Z,8.60
2023-03-28T20:05:45.347Z,8.60
2023-03-28T20:08:12.543Z,8.60
2023-03-28T20:10:43.906Z,8.60
2023-03-28T20:13:10.998Z,8.60
2023-03-28T20:15:42.137Z,8.60
2023-03-28T20:18:20.207Z,8.60
2023-03-28T20:20:54.721Z,8.60
2023-03-28T20:23:23.689Z,8.60
2023-03-28T20:25:52.225Z,8.60
2023-03-28T20:28:21.118Z,8.60
2023-03-28T20:30:48.253Z,8.60
2023-03-28T20:33:15.269Z,8.60
2023-03-28T20:35:42.214Z,8.70
2023-03-28T20:38:09.696Z,8.70
2023-03-28T20:40:39.970Z,8.70
2023-03-28T20:43:10.082Z,8.70
2023-03-28T20:45:46.043Z,8.70
2023-03-28T20:48:16.434Z,8.70
2023-03-28T20:50:46.133Z,8.70
2023-03-28T20:53:13.438Z,8.70
2023-03-28T20:55:40.618Z,8.70
2023-03-28T20:58:08.861Z,8.80
2023-03-28T21:00:36.027Z,8.70
2023-03-28T21:03:03.916Z,8.70
2023-03-28T21:05:31.828Z,8.70
2023-03-28T21:07:59.392Z,8.70
2023-03-28T21:10:28.124Z,8.70
2023-03-28T21:12:55.061Z,8.70
2023-03-28T21:15:22.290Z,8.70
2023-03-28T21:17:53.715Z,8.70
2023-03-28T21:20:20.812Z,8.70
2023-03-28T21:22:47.803Z,8.80
2023-03-28T21:25:14.891Z,8.80
2023-03-28T21:27:42.331Z,8.70
2023-03-28T21:30:11.834Z,8.70
2023-03-28T21:32:38.923Z,8.70
2023-03-28T21:35:06.446Z,8.60
2023-03-28T21:37:33.527Z,8.60
2023-03-28T21:40:00.603Z,8.60
2023-03-28T21:42:28.051Z,8.60
2023-03-28T21:44:55.088Z,8.60
2023-03-28T21:47:22.138Z,8.60
2023-03-28T21:49:49.763Z,8.60
2023-03-28T21:52:16.805Z,8.70
2023-03-28T21:54:43.907Z,8.70
2023-03-28T21:57:11.368Z,8.70
2023-03-28T21:59:40.373Z,8.70
2023-03-28T22:02:08.339Z,8.70
2023-03-28T22:04:37.010Z,8.70
2023-03-28T22:07:04.054Z,8.70
2023-03-28T22:09:31.022Z,8.80
2023-03-28T22:11:58.005Z,8.70
2023-03-28T22:14:25.082Z,8.80
2023-03-28T22:16:52.050Z,8.80
2023-03-28T22:19:19.048Z,8.80
2023-03-28T22:21:48.739Z,8.80
2023-03-28T22:24:15.666Z,8.80
2023-03-28T22:26:42.748Z,8.80
2023-03-28T22:29:10.701Z,8.80
2023-03-28T22:31:37.819Z,8.80
2023-03-28T22:34:05.051Z,8.80
2023-03-28T22:36:32.017Z,8.80
2023-03-28T22:38:58.981Z,8.80
2023-03-28T22:41:26.056Z,8.80
2023-03-28T22:43:53.283Z,8.90
2023-03-28T22:46:21.370Z,8.90
2023-03-28T22:48:54.377Z,9.00
2023-03-28T22:51:25.294Z,9.00
2023-03-28T22:53:53.139Z,9.00
2023-03-28T22:56:20.177Z,9.00
2023-03-28T22:58:47.361Z,9.00
2023-03-28T23:01:14.384Z,9.00
2023-03-28T23:03:41.504Z,9.00
2023-03-28T23:06:08.802Z,9.10
2023-03-28T23:08:35.715Z,9.10
2023-03-28T23:11:02.922Z,9.10
2023-03-28T23:13:30.115Z,9.20
2023-03-28T23:15:57.390Z,9.20
2023-03-28T23:18:24.374Z,9.20
2023-03-28T23:20:51.386Z,9.20
2023-03-28T23:23:19.011Z,9.20
2023-03-28T23:25:47.586Z,9.20
2023-03-28T23:28:14.820Z,9.20
2023-03-28T23:30:41.897Z,9.20
2023-03-28T23:33:09.149Z,9.20
2023-03-28T23:35:36.175Z,9.20
2023-03-28T23:38:03.133Z,9.20
2023-03-28T23:40:30.089Z,9.20
2023-03-28T23:42:57.030Z,9.20
2023-03-28T23:45:24.331Z,9.30
2023-03-28T23:47:51.298Z,9.20
2023-03-28T23:50:18.420Z,9.30
2023-03-28T23:52:45.356Z,9.30
2023-03-28T23:55:12.352Z,9.30
2023-03-28T23:57:39.288Z,9.30
